Elrose, Canada
Current Conditions -  °F | °C
As of 7:00 PM on Tuesday 21 Oct 2014 (Local Time) from CYKY Reporting Station
Overcast Overcast  
Wind Chill: 52°   Ceiling: 5000
Heat Index: 52°   Visibility: 15mi
Dew Point: 41°   Wind: 12mph
Humidity: 67%   Direction: 320°NW
Pressure: 29.62"   Gusts: NA
Location:  51.2°N, 108.03°W
Report Text: CYKY 220100Z 32010KT 15SM OVC050 11/05 A2962 RMK SC8 SLP043 DENSITY ALT 2700FT
Loading
Personal Weather Stations






























Interactive Weather Map
Tropical Storm Tracking
New forecast layout! Learn more

10-Day Weather Forecast

Advertisements
Track Severe Weather on mobile